sensor_id;sensor_type;location;lat;lon;timestamp;pressure;altitude;pressure_sealevel;temperature;humidity
18749;BME280;9503;53.560;10.246;2023-08-08T00:00:50;100159.75;;;17.56;77.53
18749;BME280;9503;53.560;10.246;2023-08-08T00:03:17;100159.53;;;18.21;77.63
18749;BME280;9503;53.560;10.246;2023-08-08T00:05:45;100156.03;;;18.19;76.23
18749;BME280;9503;53.560;10.246;2023-08-08T00:08:11;100151.75;;;18.21;77.53
18749;BME280;9503;53.560;10.246;2023-08-08T00:10:38;100151.97;;;18.57;77.82
18749;BME280;9503;53.560;10.246;2023-08-08T00:13:05;100146.09;;;17.71;78.29
18749;BME280;9503;53.560;10.246;2023-08-08T00:15:31;100141.81;;;17.76;79.56
18749;BME280;9503;53.560;10.246;2023-08-08T00:17:58;100150.94;;;18.32;78.91
18749;BME280;9503;53.560;10.246;2023-08-08T00:20:25;100154.50;;;17.50;79.98
18749;BME280;9503;53.560;10.246;2023-08-08T00:22:53;100152.50;;;18.10;80.07
18749;BME280;9503;53.560;10.246;2023-08-08T00:25:20;100147.31;;;18.11;80.34
18749;BME280;9503;53.560;10.246;2023-08-08T00:27:46;100153.28;;;18.01;79.01
18749;BME280;9503;53.560;10.246;2023-08-08T00:30:13;100136.13;;;17.29;82.41
18749;BME280;9503;53.560;10.246;2023-08-08T00:32:39;100137.66;;;17.95;80.67
18749;BME280;9503;53.560;10.246;2023-08-08T00:35:07;100148.28;;;18.22;79.37
18749;BME280;9503;53.560;10.246;2023-08-08T00:37:34;100136.41;;;16.82;83.61
18749;BME280;9503;53.560;10.246;2023-08-08T00:40:02;100143.22;;;16.75;84.60
18749;BME280;9503;53.560;10.246;2023-08-08T00:42:29;100136.75;;;17.11;84.25
18749;BME280;9503;53.560;10.246;2023-08-08T00:44:56;100132.28;;;17.74;82.43
18749;BME280;9503;53.560;10.246;2023-08-08T00:47:27;100132.81;;;17.42;83.24
18749;BME280;9503;53.560;10.246;2023-08-08T00:49:54;100129.75;;;17.02;84.54
18749;BME280;9503;53.560;10.246;2023-08-08T00:52:21;100133.69;;;17.44;83.47
18749;BME280;9503;53.560;10.246;2023-08-08T00:54:48;100130.41;;;16.88;86.40
18749;BME280;9503;53.560;10.246;2023-08-08T00:57:16;100130.44;;;17.63;84.15
18749;BME280;9503;53.560;10.246;2023-08-08T00:59:43;100128.34;;;17.32;83.84
18749;BME280;9503;53.560;10.246;2023-08-08T01:02:09;100122.13;;;17.98;82.30
18749;BME280;9503;53.560;10.246;2023-08-08T01:04:36;100110.69;;;17.75;83.10
18749;BME280;9503;53.560;10.246;2023-08-08T01:07:08;100114.38;;;17.18;84.00
18749;BME280;9503;53.560;10.246;2023-08-08T01:09:40;100107.53;;;17.21;84.28
18749;BME280;9503;53.560;10.246;2023-08-08T01:12:11;100107.09;;;16.86;85.88
18749;BME280;9503;53.560;10.246;2023-08-08T01:14:42;100106.16;;;16.81;86.39
18749;BME280;9503;53.560;10.246;2023-08-08T01:17:10;100114.34;;;17.15;84.71
18749;BME280;9503;53.560;10.246;2023-08-08T01:19:38;100113.38;;;17.05;85.25
18749;BME280;9503;53.560;10.246;2023-08-08T01:22:09;100114.53;;;17.28;85.10
18749;BME280;9503;53.560;10.246;2023-08-08T01:24:37;100107.88;;;16.79;86.87
18749;BME280;9503;53.560;10.246;2023-08-08T01:27:05;100098.75;;;17.10;86.01
18749;BME280;9503;53.560;10.246;2023-08-08T01:29:32;100106.78;;;17.33;85.24
18749;BME280;9503;53.560;10.246;2023-08-08T01:31:59;100106.97;;;17.51;83.35
18749;BME280;9503;53.560;10.246;2023-08-08T01:34:25;100107.56;;;17.24;84.94
18749;BME280;9503;53.560;10.246;2023-08-08T01:36:56;100103.19;;;17.20;85.29
18749;BME280;9503;53.560;10.246;2023-08-08T01:39:26;100103.50;;;17.49;84.54
18749;BME280;9503;53.560;10.246;2023-08-08T01:41:55;100092.75;;;17.12;84.44
18749;BME280;9503;53.560;10.246;2023-08-08T01:44:22;100100.88;;;17.48;85.27
18749;BME280;9503;53.560;10.246;2023-08-08T01:46:52;100108.34;;;18.05;82.58
18749;BME280;9503;53.560;10.246;2023-08-08T01:49:18;100097.84;;;17.85;81.63
18749;BME280;9503;53.560;10.246;2023-08-08T01:51:45;100090.47;;;18.49;80.90
18749;BME280;9503;53.560;10.246;2023-08-08T01:54:12;100094.63;;;18.18;80.71
18749;BME280;9503;53.560;10.246;2023-08-08T01:56:38;100094.59;;;18.15;82.10
18749;BME280;9503;53.560;10.246;2023-08-08T01:59:06;100085.91;;;18.07;81.04
18749;BME280;9503;53.560;10.246;2023-08-08T02:01:33;100088.19;;;17.71;84.22
18749;BME280;9503;53.560;10.246;2023-08-08T02:04:00;100085.63;;;16.93;86.12
18749;BME280;9503;53.560;10.246;2023-08-08T02:06:26;100090.34;;;17.31;84.58
18749;BME280;9503;53.560;10.246;2023-08-08T02:08:53;100085.44;;;17.57;83.88
18749;BME280;9503;53.560;10.246;2023-08-08T02:11:19;100084.50;;;18.61;79.88
18749;BME280;9503;53.560;10.246;2023-08-08T02:13:47;100081.63;;;18.18;80.96
18749;BME280;9503;53.560;10.246;2023-08-08T02:16:15;100078.09;;;17.15;83.68
18749;BME280;9503;53.560;10.246;2023-08-08T02:18:41;100071.25;;;17.20;85.04
18749;BME280;9503;53.560;10.246;2023-08-08T02:21:08;100075.44;;;17.08;85.05
18749;BME280;9503;53.560;10.246;2023-08-08T02:23:35;100076.44;;;17.23;84.79
18749;BME280;9503;53.560;10.246;2023-08-08T02:26:02;100069.63;;;17.31;84.47
18749;BME280;9503;53.560;10.246;2023-08-08T02:28:28;100067.50;;;16.96;84.73
18749;BME280;9503;53.560;10.246;2023-08-08T02:30:55;100066.28;;;17.43;83.13
18749;BME280;9503;53.560;10.246;2023-08-08T02:33:23;100062.19;;;17.66;82.40
18749;BME280;9503;53.560;10.246;2023-08-08T02:35:49;100058.88;;;17.78;82.08
18749;BME280;9503;53.560;10.246;2023-08-08T02:38:16;100062.38;;;17.01;83.07
18749;BME280;9503;53.560;10.246;2023-08-08T02:40:43;100056.22;;;17.72;82.74
18749;BME280;9503;53.560;10.246;2023-08-08T02:43:09;100064.19;;;17.08;84.89
18749;BME280;9503;53.560;10.246;2023-08-08T02:45:36;100061.19;;;17.49;82.09
18749;BME280;9503;53.560;10.246;2023-08-08T02:48:04;100065.84;;;17.85;81.49
18749;BME280;9503;53.560;10.246;2023-08-08T02:50:32;100068.16;;;17.60;80.76
18749;BME280;9503;53.560;10.246;2023-08-08T02:52:59;100069.09;;;17.68;81.59
18749;BME280;9503;53.560;10.246;2023-08-08T02:55:26;100067.94;;;17.34;83.48
18749;BME280;9503;53.560;10.246;2023-08-08T02:57:52;100060.31;;;17.53;83.16
18749;BME280;9503;53.560;10.246;2023-08-08T03:00:19;100060.56;;;16.91;85.26
18749;BME280;9503;53.560;10.246;2023-08-08T03:02:46;100055.31;;;16.86;84.54
18749;BME280;9503;53.560;10.246;2023-08-08T03:05:13;100055.50;;;17.01;85.63
18749;BME280;9503;53.560;10.246;2023-08-08T03:07:41;100063.47;;;17.21;84.33
18749;BME280;9503;53.560;10.246;2023-08-08T03:10:08;100054.03;;;16.55;85.85
18749;BME280;9503;53.560;10.246;2023-08-08T03:12:35;100041.66;;;16.98;84.07
18749;BME280;9503;53.560;10.246;2023-08-08T03:15:03;100055.00;;;17.36;84.64
18749;BME280;9503;53.560;10.246;2023-08-08T03:17:30;100049.38;;;16.96;84.43
18749;BME280;9503;53.560;10.246;2023-08-08T03:19:57;100040.47;;;16.73;86.25
18749;BME280;9503;53.560;10.246;2023-08-08T03:22:24;100032.19;;;17.01;85.66
18749;BME280;9503;53.560;10.246;2023-08-08T03:24:52;100049.94;;;17.50;83.08
18749;BME280;9503;53.560;10.246;2023-08-08T03:27:19;100053.81;;;17.94;81.33
18749;BME280;9503;53.560;10.246;2023-08-08T03:29:45;100046.66;;;16.84;86.03
18749;BME280;9503;53.560;10.246;2023-08-08T03:32:12;100039.09;;;17.02;85.60
18749;BME280;9503;53.560;10.246;2023-08-08T03:34:38;100037.63;;;17.27;84.36
18749;BME280;9503;53.560;10.246;2023-08-08T03:37:05;100050.94;;;17.64;82.55
18749;BME280;9503;53.560;10.246;2023-08-08T03:39:32;100039.16;;;17.05;84.33
18749;BME280;9503;53.560;10.246;2023-08-08T03:42:00;100039.38;;;17.31;84.94
18749;BME280;9503;53.560;10.246;2023-08-08T03:44:26;100038.03;;;16.82;85.39
18749;BME280;9503;53.560;10.246;2023-08-08T03:46:53;100041.34;;;16.73;87.05
18749;BME280;9503;53.560;10.246;2023-08-08T03:49:20;100045.66;;;16.71;87.23
18749;BME280;9503;53.560;10.246;2023-08-08T03:51:46;100052.53;;;16.69;85.71
18749;BME280;9503;53.560;10.246;2023-08-08T03:54:23;100043.69;;;17.28;83.95
18749;BME280;9503;53.560;10.246;2023-08-08T03:56:49;100042.44;;;16.91;83.93
18749;BME280;9503;53.560;10.246;2023-08-08T03:59:17;100041.25;;;17.46;83.96
18749;BME280;9503;53.560;10.246;2023-08-08T04:01:44;100043.28;;;17.76;83.03
18749;BME280;9503;53.560;10.246;2023-08-08T04:04:10;100038.94;;;17.75;83.86
18749;BME280;9503;53.560;10.246;2023-08-08T04:06:37;100037.53;;;18.17;82.01
18749;BME280;9503;53.560;10.246;2023-08-08T04:09:04;100031.88;;;17.62;83.29
18749;BME280;9503;53.560;10.246;2023-08-08T04:11:30;100037.72;;;17.33;83.34
18749;BME280;9503;53.560;10.246;2023-08-08T04:13:57;100049.41;;;17.86;82.18
18749;BME280;9503;53.560;10.246;2023-08-08T04:16:25;100042.59;;;18.00;81.49
18749;BME280;9503;53.560;10.246;2023-08-08T04:18:51;100044.34;;;18.01;81.22
18749;BME280;9503;53.560;10.246;2023-08-08T04:21:18;100044.25;;;17.89;82.23
18749;BME280;9503;53.560;10.246;2023-08-08T04:23:45;100040.03;;;18.02;81.07
18749;BME280;9503;53.560;10.246;2023-08-08T04:26:11;100026.34;;;17.21;84.00
18749;BME280;9503;53.560;10.246;2023-08-08T04:28:40;100034.28;;;17.40;81.72
18749;BME280;9503;53.560;10.246;2023-08-08T04:31:06;100034.88;;;18.12;81.17
18749;BME280;9503;53.560;10.246;2023-08-08T04:33:34;100043.34;;;17.84;81.93
18749;BME280;9503;53.560;10.246;2023-08-08T04:36:01;100047.84;;;18.09;80.63
18749;BME280;9503;53.560;10.246;2023-08-08T04:38:29;100046.03;;;17.94;80.59
18749;BME280;9503;53.560;10.246;2023-08-08T04:40:56;100042.72;;;18.17;80.14
18749;BME280;9503;53.560;10.246;2023-08-08T04:43:22;100040.97;;;18.14;81.02
18749;BME280;9503;53.560;10.246;2023-08-08T04:45:49;100041.38;;;17.60;81.69
18749;BME280;9503;53.560;10.246;2023-08-08T04:48:15;100050.75;;;18.61;78.64
18749;BME280;9503;53.560;10.246;2023-08-08T04:50:45;100040.56;;;17.65;80.14
18749;BME280;9503;53.560;10.246;2023-08-08T04:53:12;100041.38;;;17.57;81.46
18749;BME280;9503;53.560;10.246;2023-08-08T04:55:39;100044.66;;;18.55;77.78
18749;BME280;9503;53.560;10.246;2023-08-08T04:58:05;100043.78;;;17.40;82.03
18749;BME280;9503;53.560;10.246;2023-08-08T05:00:32;100039.53;;;17.45;81.77
18749;BME280;9503;53.560;10.246;2023-08-08T05:02:59;100036.56;;;18.01;79.65
18749;BME280;9503;53.560;10.246;2023-08-08T05:05:26;100032.28;;;18.11;79.25
18749;BME280;9503;53.560;10.246;2023-08-08T05:07:54;100028.41;;;17.57;80.48
18749;BME280;9503;53.560;10.246;2023-08-08T05:10:20;100028.31;;;17.48;81.26
18749;BME280;9503;53.560;10.246;2023-08-08T05:12:48;100028.34;;;17.52;80.86
18749;BME280;9503;53.560;10.246;2023-08-08T05:15:14;100025.56;;;17.31;82.87
18749;BME280;9503;53.560;10.246;2023-08-08T05:17:41;100025.22;;;17.85;80.44
18749;BME280;9503;53.560;10.246;2023-08-08T05:20:08;100022.53;;;17.73;81.35
18749;BME280;9503;53.560;10.246;2023-08-08T05:22:36;100025.81;;;17.58;81.67
18749;BME280;9503;53.560;10.246;2023-08-08T05:25:04;100031.81;;;17.54;80.85
18749;BME280;9503;53.560;10.246;2023-08-08T05:27:31;100022.69;;;17.99;79.87
18749;BME280;9503;53.560;10.246;2023-08-08T05:29:58;100020.81;;;17.77;81.13
18749;BME280;9503;53.560;10.246;2023-08-08T05:32:24;100026.41;;;18.38;79.22
18749;BME280;9503;53.560;10.246;2023-08-08T05:34:51;100032.44;;;18.37;78.73
18749;BME280;9503;53.560;10.246;2023-08-08T05:37:18;100019.78;;;19.25;75.45
18749;BME280;9503;53.560;10.246;2023-08-08T05:39:44;100018.97;;;19.75;73.46
18749;BME280;9503;53.560;10.246;2023-08-08T05:42:12;100015.31;;;18.68;75.56
18749;BME280;9503;53.560;10.246;2023-08-08T05:44:39;100013.69;;;19.05;76.01
18749;BME280;9503;53.560;10.246;2023-08-08T05:47:07;100010.19;;;18.98;75.55
18749;BME280;9503;53.560;10.246;2023-08-08T05:49:34;100020.72;;;17.67;79.42
18749;BME280;9503;53.560;10.246;2023-08-08T05:52:01;100010.97;;;18.71;78.68
18749;BME280;9503;53.560;10.246;2023-08-08T05:54:27;100017.22;;;19.47;75.89
18749;BME280;9503;53.560;10.246;2023-08-08T05:56:54;100024.00;;;18.79;75.40
18749;BME280;9503;53.560;10.246;2023-08-08T05:59:22;100024.06;;;20.42;70.73
18749;BME280;9503;53.560;10.246;2023-08-08T06:01:49;100019.78;;;19.30;72.83
18749;BME280;9503;53.560;10.246;2023-08-08T06:04:15;100031.06;;;20.21;71.54
18749;BME280;9503;53.560;10.246;2023-08-08T06:06:42;100032.66;;;20.63;68.70
18749;BME280;9503;53.560;10.246;2023-08-08T06:09:09;100027.56;;;19.24;74.05
18749;BME280;9503;53.560;10.246;2023-08-08T06:11:35;100027.63;;;19.54;73.45
18749;BME280;9503;53.560;10.246;2023-08-08T06:14:02;100026.78;;;19.63;72.64
18749;BME280;9503;53.560;10.246;2023-08-08T06:16:30;100029.22;;;18.91;75.73
18749;BME280;9503;53.560;10.246;2023-08-08T06:18:57;100019.78;;;20.05;72.75
18749;BME280;9503;53.560;10.246;2023-08-08T06:21:23;100025.00;;;19.48;73.88
18749;BME280;9503;53.560;10.246;2023-08-08T06:23:50;100033.66;;;20.04;71.85
18749;BME280;9503;53.560;10.246;2023-08-08T06:26:19;100021.47;;;19.03;74.41
18749;BME280;9503;53.560;10.246;2023-08-08T06:28:46;100027.47;;;18.86;75.28
18749;BME280;9503;53.560;10.246;2023-08-08T06:31:13;100037.09;;;19.22;75.95
18749;BME280;9503;53.560;10.246;2023-08-08T06:33:41;100032.81;;;19.56;74.24
18749;BME280;9503;53.560;10.246;2023-08-08T06:36:08;100026.72;;;19.37;74.85
18749;BME280;9503;53.560;10.246;2023-08-08T06:38:35;100035.44;;;19.64;75.13
18749;BME280;9503;53.560;10.246;2023-08-08T06:41:02;100031.09;;;19.98;73.82
18749;BME280;9503;53.560;10.246;2023-08-08T06:43:29;100018.09;;;19.81;73.38
18749;BME280;9503;53.560;10.246;2023-08-08T06:45:56;100025.78;;;18.97;77.28
18749;BME280;9503;53.560;10.246;2023-08-08T06:48:23;100024.94;;;20.46;73.82
18749;BME280;9503;53.560;10.246;2023-08-08T06:50:51;100031.09;;;20.07;72.38
18749;BME280;9503;53.560;10.246;2023-08-08T06:53:17;100026.53;;;20.81;71.12
18749;BME280;9503;53.560;10.246;2023-08-08T06:55:44;100030.75;;;21.00;70.22
18749;BME280;9503;53.560;10.246;2023-08-08T06:58:11;100033.09;;;21.44;69.44
18749;BME280;9503;53.560;10.246;2023-08-08T07:00:37;100030.13;;;20.48;71.16
18749;BME280;9503;53.560;10.246;2023-08-08T07:03:05;100030.16;;;20.29;71.39
18749;BME280;9503;53.560;10.246;2023-08-08T07:05:31;100011.91;;;20.43;70.19
18749;BME280;9503;53.560;10.246;2023-08-08T07:07:59;100018.13;;;19.70;73.84
18749;BME280;9503;53.560;10.246;2023-08-08T07:10:27;100025.03;;;19.93;73.83
18749;BME280;9503;53.560;10.246;2023-08-08T07:12:55;100016.22;;;20.49;71.50
18749;BME280;9503;53.560;10.246;2023-08-08T07:15:21;100004.00;;;20.63;69.85
18749;BME280;9503;53.560;10.246;2023-08-08T07:17:48;100020.25;;;21.17;69.09
18749;BME280;9503;53.560;10.246;2023-08-08T07:20:15;100010.31;;;19.78;71.77
18749;BME280;9503;53.560;10.246;2023-08-08T07:22:43;100012.88;;;20.05;71.82
18749;BME280;9503;53.560;10.246;2023-08-08T07:25:11;100011.13;;;19.45;73.28
18749;BME280;9503;53.560;10.246;2023-08-08T07:27:38;100000.75;;;19.81;71.56
18749;BME280;9503;53.560;10.246;2023-08-08T07:30:05;100001.56;;;20.08;72.06
18749;BME280;9503;53.560;10.246;2023-08-08T07:32:33;99999.00;;;19.80;71.27
18749;BME280;9503;53.560;10.246;2023-08-08T07:35:00;100007.41;;;20.83;69.22
18749;BME280;9503;53.560;10.246;2023-08-08T07:37:30;100000.41;;;20.91;68.80
18749;BME280;9503;53.560;10.246;2023-08-08T07:39:57;99984.00;;;20.69;68.06
18749;BME280;9503;53.560;10.246;2023-08-08T07:42:25;99984.03;;;20.66;68.63
18749;BME280;9503;53.560;10.246;2023-08-08T07:44:51;99984.09;;;20.54;70.27
18749;BME280;9503;53.560;10.246;2023-08-08T07:47:18;99984.94;;;20.59;69.35
18749;BME280;9503;53.560;10.246;2023-08-08T07:49:45;99986.38;;;21.11;68.12
18749;BME280;9503;53.560;10.246;2023-08-08T07:52:11;99994.94;;;21.34;65.38
18749;BME280;9503;53.560;10.246;2023-08-08T07:54:38;99991.50;;;21.26;66.85
18749;BME280;9503;53.560;10.246;2023-08-08T07:57:05;99991.31;;;22.41;64.13
18749;BME280;9503;53.560;10.246;2023-08-08T07:59:32;99987.03;;;22.36;63.33
18749;BME280;9503;53.560;10.246;2023-08-08T08:01:59;99974.63;;;21.71;65.83
18749;BME280;9503;53.560;10.246;2023-08-08T08:04:26;99985.69;;;21.96;65.81
18749;BME280;9503;53.560;10.246;2023-08-08T08:06:52;99983.72;;;22.20;63.95
18749;BME280;9503;53.560;10.246;2023-08-08T08:09:19;99980.88;;;22.41;64.19
18749;BME280;9503;53.560;10.246;2023-08-08T08:11:45;99977.16;;;21.82;64.79
18749;BME280;9503;53.560;10.246;2023-08-08T08:14:12;99985.38;;;21.38;66.93
18749;BME280;9503;53.560;10.246;2023-08-08T08:16:40;99978.03;;;20.51;69.67
18749;BME280;9503;53.560;10.246;2023-08-08T08:19:07;99980.41;;;20.96;70.47
18749;BME280;9503;53.560;10.246;2023-08-08T08:21:33;99963.91;;;20.93;67.31
18749;BME280;9503;53.560;10.246;2023-08-08T08:24:00;99967.81;;;22.41;65.71
18749;BME280;9503;53.560;10.246;2023-08-08T08:26:26;99972.78;;;22.59;64.40
18749;BME280;9503;53.560;10.246;2023-08-08T08:28:53;99980.63;;;23.23;62.14
18749;BME280;9503;53.560;10.246;2023-08-08T08:31:20;99973.38;;;22.11;64.79
18749;BME280;9503;53.560;10.246;2023-08-08T08:33:47;99971.78;;;20.82;68.44
18749;BME280;9503;53.560;10.246;2023-08-08T08:36:14;99972.81;;;20.52;69.27
18749;BME280;9503;53.560;10.246;2023-08-08T08:38:41;99981.94;;;21.28;68.47
18749;BME280;9503;53.560;10.246;2023-08-08T08:41:08;99990.75;;;21.07;69.07
18749;BME280;9503;53.560;10.246;2023-08-08T08:43:38;99992.88;;;20.15;70.10
18749;BME280;9503;53.560;10.246;2023-08-08T08:46:05;99989.81;;;21.19;66.81
18749;BME280;9503;53.560;10.246;2023-08-08T08:48:33;100011.78;;;20.80;67.24
18749;BME280;9503;53.560;10.246;2023-08-08T08:51:02;100009.06;;;20.98;67.77
18749;BME280;9503;53.560;10.246;2023-08-08T08:53:29;100018.69;;;20.84;67.38
18749;BME280;9503;53.560;10.246;2023-08-08T08:55:56;100018.00;;;21.85;64.59
18749;BME280;9503;53.560;10.246;2023-08-08T08:58:24;100021.50;;;21.82;63.61
18749;BME280;9503;53.560;10.246;2023-08-08T09:00:53;100022.94;;;22.18;62.45
18749;BME280;9503;53.560;10.246;2023-08-08T09:03:20;100019.75;;;21.83;63.73
18749;BME280;9503;53.560;10.246;2023-08-08T09:05:47;100008.03;;;21.20;65.50
18749;BME280;9503;53.560;10.246;2023-08-08T09:08:16;100017.16;;;21.83;63.79
18749;BME280;9503;53.560;10.246;2023-08-08T09:10:43;100014.88;;;21.41;65.16
18749;BME280;9503;53.560;10.246;2023-08-08T09:13:10;100013.78;;;22.56;62.60
18749;BME280;9503;53.560;10.246;2023-08-08T09:15:36;100014.53;;;21.83;63.04
18749;BME280;9503;53.560;10.246;2023-08-08T09:18:03;100008.69;;;22.45;61.36
18749;BME280;9503;53.560;10.246;2023-08-08T09:20:30;100010.66;;;22.96;60.00
18749;BME280;9503;53.560;10.246;2023-08-08T09:22:57;100013.88;;;22.48;60.25
18749;BME280;9503;53.560;10.246;2023-08-08T09:25:25;100009.06;;;22.07;61.72
18749;BME280;9503;53.560;10.246;2023-08-08T09:27:52;100008.31;;;21.94;62.68
18749;BME280;9503;53.560;10.246;2023-08-08T09:30:19;100012.56;;;22.81;61.32
18749;BME280;9503;53.560;10.246;2023-08-08T09:32:46;100019.53;;;22.82;60.48
18749;BME280;9503;53.560;10.246;2023-08-08T09:35:14;100011.94;;;22.64;60.38
18749;BME280;9503;53.560;10.246;2023-08-08T09:37:40;100026.94;;;23.16;59.88
18749;BME280;9503;53.560;10.246;2023-08-08T09:40:08;100020.88;;;22.45;60.65
18749;BME280;9503;53.560;10.246;2023-08-08T09:42:39;100020.63;;;21.83;61.89
18749;BME280;9503;53.560;10.246;2023-08-08T09:45:08;100014.81;;;21.52;63.98
18749;BME280;9503;53.560;10.246;2023-08-08T09:47:35;100016.69;;;22.30;62.03
18749;BME280;9503;53.560;10.246;2023-08-08T09:50:04;100014.38;;;22.78;60.02
18749;BME280;9503;53.560;10.246;2023-08-08T09:52:31;100011.28;;;23.13;58.84
18749;BME280;9503;53.560;10.246;2023-08-08T09:54:59;100023.75;;;22.22;61.44
18749;BME280;9503;53.560;10.246;2023-08-08T09:57:26;100024.31;;;22.47;61.40
18749;BME280;9503;53.560;10.246;2023-08-08T09:59:55;100022.91;;;22.17;61.46
18749;BME280;9503;53.560;10.246;2023-08-08T10:02:22;100014.34;;;22.04;62.23
18749;BME280;9503;53.560;10.246;2023-08-08T10:04:48;100017.88;;;20.73;66.46
18749;BME280;9503;53.560;10.246;2023-08-08T10:07:15;100021.75;;;21.50;64.58
18749;BME280;9503;53.560;10.246;2023-08-08T10:09:42;100027.16;;;21.30;64.68
18749;BME280;9503;53.560;10.246;2023-08-08T10:12:09;100035.06;;;21.07;66.41
18749;BME280;9503;53.560;10.246;2023-08-08T10:14:41;100037.34;;;21.59;65.25
18749;BME280;9503;53.560;10.246;2023-08-08T10:17:13;100033.47;;;22.04;64.16
18749;BME280;9503;53.560;10.246;2023-08-08T10:19:40;100031.47;;;21.31;64.92
18749;BME280;9503;53.560;10.246;2023-08-08T10:22:07;100021.31;;;20.82;67.16
18749;BME280;9503;53.560;10.246;2023-08-08T10:24:35;100034.44;;;20.41;70.84
18749;BME280;9503;53.560;10.246;2023-08-08T10:27:03;100043.22;;;20.02;74.01
18749;BME280;9503;53.560;10.246;2023-08-08T10:29:31;100039.78;;;19.77;75.87
18749;BME280;9503;53.560;10.246;2023-08-08T10:31:59;100037.06;;;19.08;78.22
18749;BME280;9503;53.560;10.246;2023-08-08T10:34:36;100031.03;;;20.30;75.70
18749;BME280;9503;53.560;10.246;2023-08-08T10:37:04;100018.94;;;20.03;75.90
18749;BME280;9503;53.560;10.246;2023-08-08T10:39:31;100027.63;;;19.47;79.84
18749;BME280;9503;53.560;10.246;2023-08-08T10:42:01;100022.28;;;18.86;80.78
18749;BME280;9503;53.560;10.246;2023-08-08T10:44:29;100034.28;;;18.61;82.67
18749;BME280;9503;53.560;10.246;2023-08-08T10:46:56;100027.25;;;18.37;84.77
18749;BME280;9503;53.560;10.246;2023-08-08T10:49:23;100012.00;;;19.18;81.13
18749;BME280;9503;53.560;10.246;2023-08-08T10:51:51;100000.72;;;19.20;79.08
18749;BME280;9503;53.560;10.246;2023-08-08T10:54:21;100008.53;;;19.34;79.25
18749;BME280;9503;53.560;10.246;2023-08-08T10:56:49;100017.81;;;18.57;81.91
18749;BME280;9503;53.560;10.246;2023-08-08T10:59:18;100029.31;;;19.10;81.29
18749;BME280;9503;53.560;10.246;2023-08-08T11:01:46;100036.19;;;20.43;78.03
18749;BME280;9503;53.560;10.246;2023-08-08T11:04:15;100028.78;;;21.42;74.72
18749;BME280;9503;53.560;10.246;2023-08-08T11:06:42;100015.09;;;21.05;75.85
18749;BME280;9503;53.560;10.246;2023-08-08T11:09:10;100022.81;;;21.20;72.77
18749;BME280;9503;53.560;10.246;2023-08-08T11:11:38;100019.78;;;20.20;73.56
18749;BME280;9503;53.560;10.246;2023-08-08T11:14:12;100010.78;;;20.99;71.48
18749;BME280;9503;53.560;10.246;2023-08-08T11:16:40;100017.81;;;22.03;68.29
18749;BME280;9503;53.560;10.246;2023-08-08T11:19:07;100017.19;;;21.78;68.97
18749;BME280;9503;53.560;10.246;2023-08-08T11:21:34;100016.09;;;20.82;69.94
18749;BME280;9503;53.560;10.246;2023-08-08T11:24:03;100014.38;;;20.80;71.81
18749;BME280;9503;53.560;10.246;2023-08-08T11:26:31;100013.22;;;21.25;69.02
18749;BME280;9503;53.560;10.246;2023-08-08T11:28:59;100022.47;;;21.70;68.15
18749;BME280;9503;53.560;10.246;2023-08-08T11:31:27;100010.53;;;21.40;66.93
18749;BME280;9503;53.560;10.246;2023-08-08T11:33:54;100014.31;;;20.93;66.29
18749;BME280;9503;53.560;10.246;2023-08-08T11:36:21;100027.53;;;20.32;68.80
18749;BME280;9503;53.560;10.246;2023-08-08T11:38:49;100037.97;;;20.35;69.73
18749;BME280;9503;53.560;10.246;2023-08-08T11:41:17;100025.91;;;19.75;72.20
18749;BME280;9503;53.560;10.246;2023-08-08T11:43:47;100026.53;;;20.78;71.50
18749;BME280;9503;53.560;10.246;2023-08-08T11:46:14;100018.09;;;19.78;74.67
18749;BME280;9503;53.560;10.246;2023-08-08T11:48:41;100004.78;;;18.40;77.22
18749;BME280;9503;53.560;10.246;2023-08-08T11:51:08;100017.19;;;19.42;78.07
18749;BME280;9503;53.560;10.246;2023-08-08T11:53:35;100011.13;;;19.19;79.15
18749;BME280;9503;53.560;10.246;2023-08-08T11:56:03;100012.66;;;20.79;77.20
18749;BME280;9503;53.560;10.246;2023-08-08T11:58:31;100016.81;;;21.09;75.30
18749;BME280;9503;53.560;10.246;2023-08-08T12:00:59;100014.97;;;21.26;73.61
18749;BME280;9503;53.560;10.246;2023-08-08T12:03:25;100028.25;;;20.83;73.24
18749;BME280;9503;53.560;10.246;2023-08-08T12:05:52;100028.44;;;20.11;75.43
18749;BME280;9503;53.560;10.246;2023-08-08T12:08:19;100024.16;;;19.78;75.50
18749;BME280;9503;53.560;10.246;2023-08-08T12:10:49;100041.44;;;19.38;79.73
18749;BME280;9503;53.560;10.246;2023-08-08T12:13:20;100024.13;;;19.43;78.28
18749;BME280;9503;53.560;10.246;2023-08-08T12:15:46;100025.75;;;18.83;82.19
18749;BME280;9503;53.560;10.246;2023-08-08T12:18:17;100007.72;;;19.70;81.89
18749;BME280;9503;53.560;10.246;2023-08-08T12:20:44;100016.25;;;20.36;80.66
18749;BME280;9503;53.560;10.246;2023-08-08T12:23:11;100016.19;;;20.61;77.51
18749;BME280;9503;53.560;10.246;2023-08-08T12:25:38;100001.06;;;21.25;76.26
18749;BME280;9503;53.560;10.246;2023-08-08T12:28:05;100003.19;;;20.49;76.78
18749;BME280;9503;53.560;10.246;2023-08-08T12:30:32;99991.69;;;20.92;76.31
18749;BME280;9503;53.560;10.246;2023-08-08T12:32:59;99992.22;;;21.49;73.97
18749;BME280;9503;53.560;10.246;2023-08-08T12:35:27;99989.50;;;21.59;74.04
18749;BME280;9503;53.560;10.246;2023-08-08T12:37:53;99980.88;;;21.50;73.14
18749;BME280;9503;53.560;10.246;2023-08-08T12:40:20;99987.50;;;21.90;71.70
18749;BME280;9503;53.560;10.246;2023-08-08T12:42:47;99981.25;;;20.98;74.43
18749;BME280;9503;53.560;10.246;2023-08-08T12:45:14;99985.94;;;22.55;69.13
18749;BME280;9503;53.560;10.246;2023-08-08T12:47:43;99988.59;;;22.47;68.59
18749;BME280;9503;53.560;10.246;2023-08-08T12:50:09;99989.53;;;22.45;68.53